createdAt,value
2018-09-19T00:00:53.071Z,13.90
2018-09-19T00:01:53.100Z,18.10
2018-09-19T00:02:53.124Z,13.90
2018-09-19T00:03:53.125Z,11.00
2018-09-19T00:04:53.154Z,14.60
2018-09-19T00:05:53.172Z,13.80
2018-09-19T00:06:53.237Z,12.30
2018-09-19T00:07:53.208Z,14.50
2018-09-19T00:08:53.224Z,12.50
2018-09-19T00:09:53.247Z,15.00
2018-09-19T00:10:53.262Z,13.50
2018-09-19T00:11:53.284Z,15.60
2018-09-19T00:12:53.309Z,14.50
2018-09-19T00:13:53.323Z,14.20
2018-09-19T00:14:53.344Z,13.80
2018-09-19T00:15:53.365Z,16.40
2018-09-19T00:16:53.380Z,12.60
2018-09-19T00:17:53.412Z,13.40
2018-09-19T00:18:53.422Z,15.30
2018-09-19T00:19:53.438Z,16.30
2018-09-19T00:20:53.456Z,13.80
2018-09-19T00:21:53.507Z,15.50
2018-09-19T00:22:53.495Z,13.50
2018-09-19T00:23:53.520Z,15.00
2018-09-19T00:24:53.535Z,12.00
2018-09-19T00:25:53.553Z,17.40
2018-09-19T00:26:53.573Z,14.40
2018-09-19T00:27:53.593Z,13.70
2018-09-19T00:28:53.618Z,20.00
2018-09-19T00:29:53.633Z,19.30
2018-09-19T00:30:53.654Z,14.10
2018-09-19T00:31:53.671Z,15.50
2018-09-19T00:32:53.683Z,15.10
2018-09-19T00:33:53.705Z,15.20
2018-09-19T00:34:53.725Z,14.00
2018-09-19T00:35:53.743Z,13.00
2018-09-19T00:36:53.768Z,15.20
2018-09-19T00:37:53.791Z,12.00
2018-09-19T00:38:53.807Z,16.10
2018-09-19T00:39:53.819Z,12.80
2018-09-19T00:40:53.842Z,15.10
2018-09-19T00:41:53.860Z,15.30
2018-09-19T00:42:53.880Z,14.40
2018-09-19T00:43:53.901Z,15.60
2018-09-19T00:44:53.916Z,16.70
2018-09-19T00:45:53.933Z,13.30
2018-09-19T00:46:53.962Z,16.50
2018-09-19T00:47:53.979Z,13.70
2018-09-19T00:48:53.995Z,13.90
2018-09-19T00:49:54.010Z,17.20
2018-09-19T00:50:54.055Z,14.30
2018-09-19T00:51:54.066Z,12.00
2018-09-19T00:52:54.069Z,13.30
2018-09-19T00:53:54.087Z,13.10
2018-09-19T00:54:54.117Z,13.10
2018-09-19T00:55:54.125Z,14.80
2018-09-19T00:56:54.157Z,15.20
2018-09-19T00:57:54.162Z,14.30
2018-09-19T00:58:54.190Z,18.00
2018-09-19T00:59:54.210Z,14.80
2018-09-19T01:00:54.225Z,12.50
2018-09-19T01:01:54.246Z,15.20
2018-09-19T01:02:54.263Z,16.10
2018-09-19T01:03:54.288Z,16.00
2018-09-19T01:04:54.305Z,15.60
2018-09-19T01:05:54.317Z,12.80
2018-09-19T01:06:54.334Z,15.90
2018-09-19T01:07:54.353Z,13.40
2018-09-19T01:08:54.374Z,24.80
2018-09-19T01:09:54.400Z,17.20
2018-09-19T01:10:54.413Z,17.80
2018-09-19T01:11:54.435Z,17.50
2018-09-19T01:12:54.450Z,18.00
2018-09-19T01:13:54.472Z,16.80
2018-09-19T01:14:54.494Z,17.30
2018-09-19T01:15:54.511Z,15.30
2018-09-19T01:16:54.530Z,15.30
2018-09-19T01:17:54.550Z,19.10
2018-09-19T01:18:54.566Z,19.00
2018-09-19T01:19:54.586Z,15.40
2018-09-19T01:20:54.612Z,14.00
2018-09-19T01:21:54.627Z,18.80
2018-09-19T01:22:54.647Z,18.90
2018-09-19T01:23:54.668Z,15.90
2018-09-19T01:24:54.687Z,17.00
2018-09-19T01:25:54.700Z,16.10
2018-09-19T01:26:54.716Z,19.50
2018-09-19T01:27:54.782Z,20.10
2018-09-19T01:28:54.763Z,18.20
2018-09-19T01:29:54.780Z,18.60
2018-09-19T01:30:54.801Z,18.50
2018-09-19T01:31:54.815Z,20.10
2018-09-19T01:32:54.831Z,20.40
2018-09-19T01:33:54.855Z,16.70
2018-09-19T01:34:54.871Z,21.20
2018-09-19T01:35:54.888Z,20.20
2018-09-19T01:36:54.909Z,16.80
2018-09-19T01:37:54.932Z,21.20
2018-09-19T01:38:54.954Z,18.60
2018-09-19T01:39:54.971Z,22.00
2018-09-19T01:40:54.989Z,20.90
2018-09-19T01:41:55.009Z,17.80
2018-09-19T01:42:55.026Z,18.80
2018-09-19T01:43:55.046Z,20.10
2018-09-19T01:44:55.060Z,19.70
2018-09-19T01:45:55.084Z,21.60
2018-09-19T01:46:55.111Z,17.80
2018-09-19T01:47:55.121Z,21.30
2018-09-19T01:48:55.143Z,20.80
2018-09-19T01:49:55.157Z,21.20
2018-09-19T01:50:55.176Z,20.00
2018-09-19T01:51:55.207Z,20.40
2018-09-19T01:52:55.215Z,19.60
2018-09-19T01:53:55.248Z,16.20
2018-09-19T01:54:55.254Z,22.00
2018-09-19T01:55:55.273Z,16.70
2018-09-19T01:56:55.292Z,18.10
2018-09-19T01:57:55.314Z,17.30
2018-09-19T01:58:55.330Z,20.00
2018-09-19T01:59:55.348Z,19.50
2018-09-19T02:00:55.367Z,18.00
2018-09-19T02:01:55.389Z,20.00
2018-09-19T02:02:55.411Z,14.90
2018-09-19T02:03:55.434Z,18.40
2018-09-19T02:04:55.443Z,20.70
2018-09-19T02:05:55.465Z,19.00
2018-09-19T02:06:55.487Z,20.40
2018-09-19T02:07:55.500Z,21.30
2018-09-19T02:08:55.525Z,19.60
2018-09-19T02:09:55.541Z,21.50
2018-09-19T02:10:55.564Z,18.60
2018-09-19T02:11:55.580Z,19.30
2018-09-19T02:12:55.603Z,18.00
2018-09-19T02:13:55.622Z,19.60
2018-09-19T02:14:55.635Z,19.00
2018-09-19T02:15:55.659Z,19.10
2018-09-19T02:16:55.674Z,19.40
2018-09-19T02:17:55.692Z,21.00
2018-09-19T02:18:55.712Z,21.00
2018-09-19T02:19:55.729Z,19.90
2018-09-19T02:20:55.748Z,19.90
2018-09-19T02:21:55.767Z,18.40
2018-09-19T02:22:55.791Z,18.60
2018-09-19T02:23:55.809Z,18.50
2018-09-19T02:24:55.864Z,20.20
2018-09-19T02:25:55.846Z,16.30
2018-09-19T02:26:55.868Z,17.90
2018-09-19T02:27:55.886Z,17.50
2018-09-19T02:28:55.904Z,19.10
2018-09-19T02:29:55.919Z,20.20
2018-09-19T02:30:55.941Z,16.90
2018-09-19T02:31:55.959Z,17.80
2018-09-19T02:32:55.976Z,17.60
2018-09-19T02:33:56.003Z,17.20
2018-09-19T02:34:56.019Z,16.40
2018-09-19T02:35:56.034Z,18.40
2018-09-19T02:36:56.055Z,17.90
2018-09-19T02:37:56.077Z,13.90
2018-09-19T02:38:56.090Z,19.80
2018-09-19T02:39:56.110Z,15.60
2018-09-19T02:40:56.146Z,16.80
2018-09-19T02:41:56.157Z,15.40
2018-09-19T02:42:56.180Z,16.60
2018-09-19T02:43:56.188Z,17.90
2018-09-19T02:44:56.212Z,14.60
2018-09-19T02:45:56.223Z,16.50
2018-09-19T02:46:56.247Z,15.70
2018-09-19T02:47:56.266Z,18.00
2018-09-19T02:48:56.282Z,17.70
2018-09-19T02:49:56.297Z,21.00
2018-09-19T02:50:56.320Z,18.30
2018-09-19T02:51:56.339Z,17.00
2018-09-19T02:52:56.356Z,17.10
2018-09-19T02:53:56.375Z,14.80
2018-09-19T02:54:56.401Z,15.40
2018-09-19T02:55:56.411Z,21.50
2018-09-19T02:56:56.432Z,17.90
2018-09-19T02:57:56.452Z,18.10
2018-09-19T02:58:56.474Z,14.30
2018-09-19T02:59:56.487Z,16.80
2018-09-19T03:00:56.507Z,17.90
2018-09-19T03:01:56.525Z,14.80
2018-09-19T03:02:56.544Z,17.10
2018-09-19T03:03:56.560Z,15.30
2018-09-19T03:04:56.585Z,21.00
2018-09-19T03:05:56.601Z,14.80
2018-09-19T03:06:56.619Z,16.60
2018-09-19T03:07:56.636Z,18.40
2018-09-19T03:08:56.656Z,17.40
2018-09-19T03:39:41.937Z,11.60
2018-09-19T03:40:41.943Z,16.80
2018-09-19T03:42:34.057Z,25.50
2018-09-19T03:43:34.041Z,16.10
2018-09-19T03:45:25.947Z,19.40
2018-09-19T03:46:25.963Z,20.40
2018-09-19T03:48:17.883Z,20.60
2018-09-19T03:49:17.874Z,20.50
2018-09-19T03:51:09.825Z,19.00
2018-09-19T03:52:09.805Z,22.40
2018-09-19T03:54:02.206Z,18.70
2018-09-19T03:55:02.222Z,22.20
2018-09-19T03:56:54.158Z,16.70
2018-09-19T03:57:54.157Z,19.60
2018-09-19T03:59:46.063Z,18.50
2018-09-19T04:00:46.074Z,20.20
2018-09-19T04:02:38.023Z,19.30
2018-09-19T04:03:38.008Z,20.80
2018-09-19T04:05:29.942Z,16.10
2018-09-19T04:06:29.954Z,18.40
2018-09-19T04:08:21.888Z,19.30
2018-09-19T04:09:21.879Z,17.10
2018-09-19T04:11:13.875Z,16.70
2018-09-19T04:12:13.804Z,23.30
2018-09-19T04:14:05.727Z,16.50
2018-09-19T04:15:05.746Z,21.20
2018-09-19T04:16:57.683Z,20.50
2018-09-19T04:17:57.759Z,16.90
2018-09-19T04:19:49.598Z,21.80
2018-09-19T04:20:49.604Z,17.10
2018-09-19T04:22:41.543Z,18.70
2018-09-19T04:23:41.537Z,16.80
2018-09-19T04:25:33.449Z,16.80
2018-09-19T04:26:33.479Z,19.30
2018-09-19T04:28:25.406Z,19.80
2018-09-19T04:29:25.397Z,18.00
2018-09-19T04:31:17.311Z,20.00
2018-09-19T04:32:17.399Z,19.40
2018-09-19T04:34:09.267Z,23.60
2018-09-19T04:35:09.269Z,18.10
2018-09-19T04:37:01.208Z,18.40
2018-09-19T04:38:01.193Z,18.10
2018-09-19T04:39:53.115Z,20.80
2018-09-19T04:40:53.126Z,18.30
2018-09-19T04:42:45.065Z,19.60
2018-09-19T04:43:45.059Z,17.80
2018-09-19T04:45:36.978Z,16.90
2018-09-19T04:46:36.996Z,17.00
2018-09-19T04:48:28.936Z,17.00
2018-09-19T04:49:28.924Z,19.20
2018-09-19T04:51:20.948Z,20.20
2018-09-19T04:52:20.872Z,19.40
2018-09-19T04:54:12.804Z,19.20
2018-09-19T04:55:12.791Z,17.00
2018-09-19T04:57:04.735Z,19.90
2018-09-19T04:58:04.736Z,20.30
2018-09-19T04:59:56.653Z,22.70
2018-09-19T05:00:56.670Z,18.80
2018-09-19T05:02:48.612Z,23.10
2018-09-19T05:03:48.604Z,19.90
2018-09-19T05:05:40.551Z,18.40
2018-09-19T05:06:40.532Z,26.10
2018-09-19T05:08:32.516Z,20.80
2018-09-19T05:09:32.509Z,22.70
2018-09-19T05:11:24.471Z,23.60
2018-09-19T05:12:24.446Z,18.90
2018-09-19T05:14:16.398Z,22.50
2018-09-19T05:15:16.378Z,17.30
2018-09-19T05:17:08.377Z,21.00
2018-09-19T05:18:08.363Z,22.90
2018-09-19T05:20:00.344Z,19.60
2018-09-19T05:21:00.312Z,22.30
2018-09-19T05:22:52.381Z,24.10
2018-09-19T05:23:52.346Z,24.60
2018-09-19T05:25:44.260Z,20.60
2018-09-19T05:26:44.825Z,21.80
2018-09-19T05:28:36.314Z,26.00
2018-09-19T05:29:36.309Z,21.70
2018-09-19T05:31:28.252Z,22.70
2018-09-19T05:32:28.248Z,28.60
2018-09-19T05:34:20.345Z,23.90
2018-09-19T05:35:20.284Z,27.10
2018-09-19T05:37:12.709Z,20.80
2018-09-19T05:38:12.706Z,20.60
2018-09-19T05:40:04.625Z,24.30
2018-09-19T05:41:04.636Z,24.10
2018-09-19T05:42:56.608Z,24.70
2018-09-19T05:43:56.608Z,22.10
2018-09-19T05:45:48.520Z,23.70
2018-09-19T05:46:48.544Z,21.50
2018-09-19T05:48:40.479Z,20.80
2018-09-19T05:49:40.489Z,24.00
2018-09-19T05:51:32.397Z,23.20
2018-09-19T05:52:32.411Z,22.90
2018-09-19T05:54:24.424Z,27.60
2018-09-19T05:55:24.355Z,23.10
2018-09-19T05:57:16.434Z,22.20
2018-09-19T05:58:16.426Z,24.80
2018-09-19T06:00:08.364Z,22.50
2018-09-19T06:01:08.375Z,22.80
2018-09-19T06:03:00.326Z,21.30
2018-09-19T06:04:00.331Z,25.90
2018-09-19T06:05:52.271Z,24.60
2018-09-19T06:06:52.264Z,22.10
2018-09-19T06:08:44.202Z,27.50
2018-09-19T06:09:44.247Z,27.30
2018-09-19T06:10:44.218Z,22.80
2018-09-19T06:11:44.235Z,20.80
2018-09-19T06:12:44.305Z,20.70
2018-09-19T06:13:44.276Z,21.90
2018-09-19T06:14:44.298Z,25.70
2018-09-19T06:15:44.315Z,23.90
2018-09-19T06:16:44.333Z,23.60
2018-09-19T06:17:44.355Z,23.10
2018-09-19T06:18:44.374Z,21.70
2018-09-19T06:19:44.415Z,21.80
2018-09-19T06:20:44.440Z,23.60
2018-09-19T06:21:44.449Z,21.70
2018-09-19T06:22:44.469Z,25.00
2018-09-19T06:23:44.488Z,21.80
2018-09-19T06:24:44.507Z,21.80
2018-09-19T06:25:44.537Z,23.00
2018-09-19T06:26:44.562Z,21.10
2018-09-19T06:27:44.578Z,24.30
2018-09-19T06:28:44.569Z,25.20
2018-09-19T06:29:44.588Z,19.90
2018-09-19T06:30:44.610Z,25.60
2018-09-19T06:31:44.640Z,21.00
2018-09-19T06:32:44.713Z,23.50
2018-09-19T06:33:44.671Z,22.60
2018-09-19T06:34:44.694Z,21.00
2018-09-19T06:35:44.708Z,21.30
2018-09-19T06:36:44.730Z,23.40
2018-09-19T06:37:44.757Z,19.90
2018-09-19T06:38:44.782Z,19.20
2018-09-19T06:39:44.836Z,20.80
2018-09-19T06:40:44.897Z,21.20
2018-09-19T06:41:44.841Z,22.40
2018-09-19T06:42:44.854Z,19.00
2018-09-19T06:43:44.876Z,19.50
2018-09-19T06:44:44.903Z,21.10
2018-09-19T06:45:44.981Z,21.30
2018-09-19T06:46:44.964Z,19.50
2018-09-19T06:47:44.956Z,19.70
2018-09-19T06:48:44.991Z,21.70
2018-09-19T06:49:44.997Z,21.20
2018-09-19T06:50:45.015Z,17.70
2018-09-19T06:51:45.039Z,22.30
2018-09-19T06:52:45.067Z,20.10
2018-09-19T06:53:45.080Z,17.00
2018-09-19T06:54:45.104Z,21.80
2018-09-19T06:55:45.124Z,20.30
2018-09-19T06:56:45.142Z,20.70
2018-09-19T06:59:41.309Z,15.20
